IT-0021 weather

Campo di Volo Elpifly
Marina di Ragusa, Sicily, Italy

Public forecast

Using degrees Celsius for public forecast. Weather courtesy of forecast.io.

Closest aviation weather report (METAR) to Campo di Volo Elpifly

Closest report is Comiso Airport, 11.4 nm (21.2 km) NNE. Retrieved 2020/02/21 04:50 UTC (2 hours ago):

LICB 210450Z AUTO 06007KT 9999 NCD 01/M00 Q1023

Closest aviation forecast (TAF) to Campo di Volo Elpifly

Closest forecast is Sigonella Navy Air Base, 39.8 nm (73.7 km) NNE. Retrieved 2020/02/21 06:26 UTC (4 minutes ago):

TAF LICZ 210500Z 2106/2206 27008KT CAVOK BECMG 2113/2115 10010KT BECMG 2120/2122 28008KT